createdAt,value
2023-01-24T00:01:02.131Z,7.80
2023-01-24T00:03:28.906Z,8.38
2023-01-24T00:05:55.386Z,6.93
2023-01-24T00:08:25.031Z,6.95
2023-01-24T00:11:10.236Z,7.38
2023-01-24T00:13:37.879Z,6.90
2023-01-24T00:16:15.917Z,7.43
2023-01-24T00:18:42.631Z,7.28
2023-01-24T00:21:15.709Z,7.53
2023-01-24T00:23:48.131Z,8.48
2023-01-24T00:26:15.261Z,7.55
2023-01-24T00:28:42.061Z,6.25
2023-01-24T00:31:08.676Z,6.80
2023-01-24T00:33:35.433Z,7.60
2023-01-24T00:36:02.727Z,6.78
2023-01-24T00:38:30.507Z,6.68
2023-01-24T00:40:57.539Z,7.45
2023-01-24T00:43:24.005Z,6.25
2023-01-24T00:45:50.437Z,7.00
2023-01-24T00:48:16.869Z,6.93
2023-01-24T00:50:43.305Z,6.97
2023-01-24T00:53:09.911Z,6.55
2023-01-24T00:55:43.498Z,7.57
2023-01-24T00:58:10.406Z,6.32
2023-01-24T01:00:39.495Z,5.65
2023-01-24T01:03:10.202Z,6.82
2023-01-24T01:05:36.580Z,6.75
2023-01-24T01:08:03.065Z,6.35
2023-01-24T01:10:29.460Z,5.72
2023-01-24T01:12:55.840Z,6.80
2023-01-24T01:15:22.570Z,6.00
2023-01-24T01:17:49.419Z,6.38
2023-01-24T01:20:15.914Z,6.00
2023-01-24T01:22:42.460Z,5.75
2023-01-24T01:25:09.327Z,5.43
2023-01-24T01:27:35.747Z,5.15
2023-01-24T01:30:02.097Z,5.40
2023-01-24T01:32:28.495Z,5.03
2023-01-24T01:34:54.951Z,5.13
2023-01-24T01:37:21.390Z,4.32
2023-01-24T01:39:47.844Z,5.32
2023-01-24T01:42:15.789Z,5.35
2023-01-24T01:44:44.325Z,4.85
2023-01-24T01:47:30.587Z,4.07
2023-01-24T01:50:19.605Z,4.43
2023-01-24T01:52:45.987Z,4.03
2023-01-24T01:55:19.622Z,4.10
2023-01-24T01:57:48.378Z,4.18
2023-01-24T02:00:18.878Z,4.00
2023-01-24T02:02:53.592Z,3.72
2023-01-24T02:05:24.906Z,3.78
2023-01-24T02:08:05.041Z,3.90
2023-01-24T02:10:51.642Z,3.92
2023-01-24T02:13:18.151Z,4.20
2023-01-24T02:16:05.191Z,3.70
2023-01-24T02:18:33.125Z,4.10
2023-01-24T02:20:59.841Z,4.25
2023-01-24T02:23:29.443Z,4.25
2023-01-24T02:26:14.666Z,3.80
2023-01-24T02:28:50.024Z,4.65
2023-01-24T02:31:16.896Z,4.13
2023-01-24T02:33:43.418Z,3.75
2023-01-24T02:36:25.646Z,4.05
2023-01-24T02:39:04.682Z,3.78
2023-01-24T02:41:39.325Z,3.38
2023-01-24T02:44:10.416Z,3.53
2023-01-24T02:46:38.211Z,4.13
2023-01-24T02:49:08.841Z,3.30
2023-01-24T02:51:53.909Z,4.10
2023-01-24T02:54:20.275Z,3.47
2023-01-24T02:57:04.981Z,3.50
2023-01-24T02:59:31.443Z,3.42
2023-01-24T03:01:57.875Z,4.25
2023-01-24T03:04:24.420Z,3.60
2023-01-24T03:06:50.823Z,3.90
2023-01-24T03:09:20.351Z,3.70
2023-01-24T03:11:47.933Z,3.70
2023-01-24T03:14:36.395Z,3.17
2023-01-24T03:20:06.013Z,3.33
2023-01-24T03:22:50.846Z,3.50
2023-01-24T03:25:35.607Z,3.33
2023-01-24T03:28:25.135Z,3.22
2023-01-24T03:31:09.783Z,3.95
2023-01-24T03:33:54.554Z,3.13
2023-01-24T03:36:32.438Z,3.67
2023-01-24T03:39:17.544Z,3.80
2023-01-24T03:41:44.119Z,3.55
2023-01-24T03:44:10.832Z,3.85
2023-01-24T03:46:40.993Z,3.33
2023-01-24T03:49:08.471Z,3.65
2023-01-24T03:51:54.642Z,3.67
2023-01-24T03:54:21.085Z,4.00
2023-01-24T03:56:50.005Z,4.20
2023-01-24T03:59:17.227Z,4.63
2023-01-24T04:01:43.664Z,3.67
2023-01-24T04:04:10.149Z,3.83
2023-01-24T04:06:36.493Z,3.33
2023-01-24T04:09:04.102Z,4.05
2023-01-24T04:11:30.469Z,3.42
2023-01-24T04:13:56.904Z,3.95
2023-01-24T04:16:23.301Z,3.92
2023-01-24T04:18:49.708Z,3.72
2023-01-24T04:21:16.114Z,3.80
2023-01-24T04:23:42.630Z,3.58
2023-01-24T04:26:09.025Z,4.32
2023-01-24T04:28:35.658Z,4.05
2023-01-24T04:31:03.529Z,3.55
2023-01-24T04:33:30.083Z,4.05
2023-01-24T04:36:00.059Z,3.50
2023-01-24T04:38:26.873Z,3.55
2023-01-24T04:41:00.775Z,3.55
2023-01-24T04:43:27.316Z,4.20
2023-01-24T04:45:58.781Z,3.55
2023-01-24T04:48:25.272Z,3.72
2023-01-24T04:50:52.121Z,3.17
2023-01-24T04:53:18.533Z,3.60
2023-01-24T04:55:44.945Z,3.47
2023-01-24T04:58:11.328Z,3.35
2023-01-24T05:00:37.741Z,3.35
2023-01-24T05:03:04.149Z,4.03
2023-01-24T05:05:30.526Z,3.63
2023-01-24T05:07:56.955Z,4.38
2023-01-24T05:10:24.396Z,3.85
2023-01-24T05:12:50.989Z,3.63
2023-01-24T05:15:18.863Z,3.50
2023-01-24T05:17:45.402Z,3.47
2023-01-24T05:20:12.425Z,3.15
2023-01-24T05:22:38.789Z,3.38
2023-01-24T05:25:05.758Z,3.72
2023-01-24T05:27:32.115Z,3.08
2023-01-24T05:29:58.474Z,4.22
2023-01-24T05:32:24.934Z,3.72
2023-01-24T05:34:51.309Z,3.30
2023-01-24T05:37:17.751Z,3.45
2023-01-24T05:39:44.167Z,3.80
2023-01-24T05:42:10.668Z,4.18
2023-01-24T05:44:37.040Z,4.13
2023-01-24T05:47:03.561Z,3.72
2023-01-24T05:49:29.921Z,3.70
2023-01-24T05:51:56.360Z,3.50
2023-01-24T05:54:22.716Z,3.40
2023-01-24T05:56:49.143Z,3.45
2023-01-24T05:59:15.531Z,3.78
2023-01-24T06:01:41.989Z,3.60
2023-01-24T06:04:08.368Z,3.72
2023-01-24T06:06:34.895Z,3.75
2023-01-24T06:09:01.399Z,3.65
2023-01-24T06:11:28.401Z,3.63
2023-01-24T06:13:57.642Z,3.35
2023-01-24T06:16:25.799Z,4.03
2023-01-24T06:18:54.049Z,3.47
2023-01-24T06:21:23.152Z,3.85
2023-01-24T06:23:49.781Z,3.55
2023-01-24T06:26:16.431Z,3.90
2023-01-24T06:28:43.087Z,3.05
2023-01-24T06:31:22.806Z,3.38
2023-01-24T06:33:55.252Z,3.35
2023-01-24T06:36:42.341Z,3.60
2023-01-24T06:39:15.183Z,3.55
2023-01-24T06:41:42.190Z,3.72
2023-01-24T06:44:10.972Z,3.15
2023-01-24T06:46:37.636Z,3.38
2023-01-24T06:49:04.052Z,3.50
2023-01-24T06:51:30.405Z,3.42
2023-01-24T06:53:56.782Z,3.20
2023-01-24T06:56:23.165Z,3.20
2023-01-24T06:58:49.495Z,4.05
2023-01-24T07:01:15.812Z,3.40
2023-01-24T07:03:42.247Z,3.15
2023-01-24T07:06:08.655Z,3.83
2023-01-24T07:08:35.072Z,3.58
2023-01-24T07:11:01.465Z,3.72
2023-01-24T07:13:28.114Z,3.95
2023-01-24T07:15:54.522Z,3.83
2023-01-24T07:18:21.358Z,3.17
2023-01-24T07:20:48.355Z,4.00
2023-01-24T07:23:28.994Z,3.47
2023-01-24T07:25:56.198Z,3.13
2023-01-24T07:28:22.672Z,3.83
2023-01-24T07:30:49.952Z,3.28
2023-01-24T07:33:16.687Z,3.58
2023-01-24T07:35:43.559Z,3.97
2023-01-24T07:38:10.255Z,4.38
2023-01-24T07:40:37.172Z,3.90
2023-01-24T07:43:04.612Z,3.53
2023-01-24T07:45:31.534Z,3.53
2023-01-24T07:47:59.364Z,4.03
2023-01-24T07:50:27.303Z,3.97
2023-01-24T07:52:54.439Z,4.32
2023-01-24T07:55:22.419Z,3.65
2023-01-24T07:57:49.365Z,3.95
2023-01-24T08:00:16.520Z,3.78
2023-01-24T08:02:44.629Z,4.22
2023-01-24T08:05:12.054Z,4.32
2023-01-24T08:07:38.393Z,3.75
2023-01-24T08:10:05.862Z,3.92
2023-01-24T08:12:32.355Z,4.07
2023-01-24T08:14:58.837Z,3.53
2023-01-24T08:17:25.315Z,3.50
2023-01-24T08:19:56.763Z,3.60
2023-01-24T08:22:24.505Z,4.53
2023-01-24T08:24:50.885Z,4.05
2023-01-24T08:27:17.284Z,3.72
2023-01-24T08:29:43.707Z,3.95
2023-01-24T08:32:10.165Z,3.80
2023-01-24T08:34:36.601Z,4.15
2023-01-24T08:37:02.971Z,4.50
2023-01-24T08:39:29.566Z,4.13
2023-01-24T08:41:56.221Z,4.25
2023-01-24T08:44:22.758Z,5.13
2023-01-24T08:46:49.169Z,4.70
2023-01-24T08:49:15.542Z,4.05
2023-01-24T08:51:42.006Z,4.60
2023-01-24T08:54:08.428Z,4.07
2023-01-24T08:56:35.365Z,4.63
2023-01-24T08:59:01.837Z,4.22
2023-01-24T09:01:28.463Z,3.92
2023-01-24T09:04:00.097Z,4.53
2023-01-24T09:06:27.163Z,4.70
2023-01-24T09:08:55.492Z,4.63
2023-01-24T09:11:22.843Z,4.50
2023-01-24T09:13:49.331Z,3.90
2023-01-24T09:16:15.766Z,4.47
2023-01-24T09:18:42.204Z,4.40
2023-01-24T09:21:08.725Z,4.72
2023-01-24T09:23:35.312Z,5.28
2023-01-24T09:26:01.690Z,4.53
2023-01-24T09:28:28.155Z,4.03
2023-01-24T09:30:54.872Z,3.85
2023-01-24T09:33:21.527Z,4.00
2023-01-24T09:36:01.784Z,4.50
2023-01-24T09:38:30.838Z,4.55
2023-01-24T09:41:09.211Z,4.80
2023-01-24T09:43:56.177Z,4.40
2023-01-24T09:46:32.973Z,4.43
2023-01-24T09:49:28.818Z,4.65
2023-01-24T09:51:55.422Z,4.65
2023-01-24T09:54:44.703Z,4.65
2023-01-24T09:57:25.512Z,4.20
2023-01-24T09:59:56.925Z,4.38
2023-01-24T10:02:26.002Z,4.25
2023-01-24T10:04:52.432Z,4.80
2023-01-24T10:07:40.866Z,4.00
2023-01-24T10:13:01.728Z,4.45
2023-01-24T10:15:49.598Z,4.60
2023-01-24T10:18:35.650Z,4.10
2023-01-24T10:21:17.195Z,3.90
2023-01-24T10:23:49.599Z,4.28
2023-01-24T10:26:20.447Z,4.45
2023-01-24T10:28:52.622Z,4.80
2023-01-24T10:31:31.635Z,3.88
2023-01-24T10:34:09.908Z,4.20
2023-01-24T10:37:11.482Z,4.93
2023-01-24T10:39:38.554Z,4.32
2023-01-24T10:42:26.561Z,3.78
2023-01-24T10:44:55.666Z,4.13
2023-01-24T10:47:41.984Z,4.07
2023-01-24T10:50:13.929Z,4.38
2023-01-24T10:52:40.355Z,3.92
2023-01-24T10:55:31.394Z,4.65
2023-01-24T10:57:58.553Z,3.80
2023-01-24T11:00:34.330Z,4.18
2023-01-24T11:03:17.280Z,3.88
2023-01-24T11:05:48.756Z,4.60
2023-01-24T11:08:23.899Z,4.20
2023-01-24T11:11:01.411Z,4.45
2023-01-24T11:13:35.656Z,5.75
2023-01-24T11:16:22.391Z,4.70
2023-01-24T11:19:06.491Z,4.93
2023-01-24T11:21:33.767Z,4.65
2023-01-24T11:24:20.471Z,4.20
2023-01-24T11:26:55.955Z,5.05
2023-01-24T11:29:23.103Z,4.30
2023-01-24T11:32:07.183Z,3.65
2023-01-24T11:34:48.264Z,4.20
2023-01-24T11:37:26.745Z,4.13
2023-01-24T11:39:59.093Z,5.25
2023-01-24T11:42:45.934Z,5.47
2023-01-24T11:45:30.468Z,4.72
2023-01-24T11:48:09.073Z,4.85
2023-01-24T11:50:48.695Z,4.78
2023-01-24T11:53:38.840Z,5.03
2023-01-24T11:56:21.724Z,5.35
2023-01-24T11:59:22.298Z,4.70
2023-01-24T12:02:02.216Z,5.63
2023-01-24T12:04:40.737Z,5.50
2023-01-24T12:07:26.500Z,5.57
2023-01-24T12:10:22.345Z,5.95
2023-01-24T12:13:21.126Z,5.57
2023-01-24T12:15:53.415Z,5.55
2023-01-24T12:18:53.949Z,7.47
2023-01-24T12:21:20.367Z,6.47
2023-01-24T12:24:10.181Z,6.22
2023-01-24T12:26:43.033Z,6.32
2023-01-24T12:29:18.737Z,6.38
2023-01-24T12:31:58.287Z,6.32
2023-01-24T12:34:51.917Z,6.60
2023-01-24T12:37:59.757Z,5.78
2023-01-24T12:40:35.717Z,5.60
2023-01-24T12:43:23.020Z,6.55
2023-01-24T12:45:52.288Z,5.60
2023-01-24T12:48:39.012Z,6.28
2023-01-24T12:51:22.171Z,6.28
2023-01-24T12:54:24.180Z,6.85
2023-01-24T12:57:03.552Z,6.32
2023-01-24T12:59:33.286Z,5.65
2023-01-24T13:02:44.662Z,5.90
2023-01-24T13:05:21.807Z,5.53
2023-01-24T13:08:26.667Z,5.20
2023-01-24T13:11:29.310Z,5.13
2023-01-24T13:14:01.338Z,5.88
2023-01-24T13:16:46.143Z,6.65
2023-01-24T13:19:39.256Z,5.82
2023-01-24T13:22:36.769Z,6.47
2023-01-24T13:25:12.278Z,5.00
2023-01-24T13:28:23.411Z,6.03
2023-01-24T13:31:02.040Z,5.78
2023-01-24T13:33:38.561Z,5.03
2023-01-24T13:36:07.794Z,5.13
2023-01-24T13:38:42.983Z,5.25
2023-01-24T13:41:34.799Z,5.03
2023-01-24T13:44:07.257Z,5.07
2023-01-24T13:46:42.975Z,5.40
2023-01-24T13:50:02.021Z,4.70
2023-01-24T13:52:37.195Z,5.25
2023-01-24T13:55:23.933Z,4.75
2023-01-24T13:58:08.608Z,4.97
2023-01-24T14:00:46.771Z,5.65
2023-01-24T14:03:21.361Z,5.60
2023-01-24T14:05:51.881Z,5.43
2023-01-24T14:08:21.202Z,5.97
2023-01-24T14:10:54.143Z,5.63
2023-01-24T14:13:48.452Z,5.72
2023-01-24T14:16:27.503Z,5.28
2023-01-24T14:18:59.694Z,5.97
2023-01-24T14:21:36.080Z,5.80
2023-01-24T14:24:21.272Z,5.53
2023-01-24T14:27:12.664Z,5.18
2023-01-24T14:29:42.484Z,5.50
2023-01-24T14:32:46.706Z,6.03
2023-01-24T14:35:31.017Z,5.55
2023-01-24T14:38:14.954Z,5.65
2023-01-24T14:40:42.209Z,5.78
2023-01-24T14:43:12.045Z,5.25
2023-01-24T14:45:38.484Z,5.57
2023-01-24T14:48:11.448Z,5.47
2023-01-24T14:50:39.303Z,6.32
2023-01-24T14:53:28.118Z,6.32
2023-01-24T14:55:57.326Z,5.93
2023-01-24T14:58:26.542Z,6.47
2023-01-24T15:00:55.873Z,6.85
2023-01-24T15:03:25.870Z,6.35
2023-01-24T15:05:58.898Z,6.93
2023-01-24T15:08:26.399Z,6.53
2023-01-24T15:11:24.615Z,6.38
2023-01-24T15:13:55.894Z,6.18
2023-01-24T15:16:29.582Z,6.25
2023-01-24T15:19:03.549Z,6.18
2023-01-24T15:21:38.458Z,6.55
2023-01-24T15:24:06.620Z,5.28
2023-01-24T15:26:41.453Z,5.90
2023-01-24T15:29:43.769Z,6.28
2023-01-24T15:32:34.989Z,5.53
2023-01-24T15:35:33.747Z,5.85
2023-01-24T15:38:06.148Z,6.40
2023-01-24T15:40:34.662Z,5.63
2023-01-24T15:43:20.941Z,7.20
2023-01-24T15:46:12.504Z,6.00
2023-01-24T15:48:39.620Z,5.40
2023-01-24T15:51:11.941Z,4.93
2023-01-24T15:53:40.421Z,5.70
2023-01-24T15:56:13.082Z,5.75
2023-01-24T15:58:40.174Z,5.50
2023-01-24T16:01:06.852Z,5.70
2023-01-24T16:03:33.523Z,6.90
2023-01-24T16:06:00.093Z,5.82
2023-01-24T16:08:27.226Z,5.78
2023-01-24T16:10:59.138Z,5.50
2023-01-24T16:13:33.640Z,5.35
2023-01-24T16:16:02.701Z,5.30
2023-01-24T16:18:29.113Z,5.38
2023-01-24T16:20:55.603Z,6.15
2023-01-24T16:23:22.173Z,5.85
2023-01-24T16:25:51.200Z,5.25
2023-01-24T16:28:23.210Z,6.68
2023-01-24T16:30:50.862Z,6.00
2023-01-24T16:33:19.126Z,6.63
2023-01-24T16:35:46.219Z,5.82
2023-01-24T16:38:14.778Z,6.03
2023-01-24T16:40:41.861Z,6.10
2023-01-24T16:43:22.905Z,6.00
2023-01-24T16:45:51.325Z,6.32
2023-01-24T16:48:18.222Z,5.82
2023-01-24T16:50:46.388Z,6.63
2023-01-24T16:53:14.350Z,6.32
2023-01-24T16:55:41.949Z,6.68
2023-01-24T16:58:09.815Z,6.28
2023-01-24T17:00:37.699Z,6.70
2023-01-24T17:03:04.376Z,7.07
2023-01-24T17:05:31.155Z,6.93
2023-01-24T17:07:58.400Z,6.65
2023-01-24T17:10:26.547Z,7.47
2023-01-24T17:12:52.998Z,7.78
2023-01-24T17:15:19.533Z,6.35
2023-01-24T17:17:45.873Z,7.72
2023-01-24T17:20:12.524Z,7.68
2023-01-24T17:22:40.109Z,7.07
2023-01-24T17:25:08.036Z,8.00
2023-01-24T17:27:34.748Z,7.28
2023-01-24T17:30:01.296Z,6.50
2023-01-24T17:32:28.185Z,6.78
2023-01-24T17:34:54.525Z,6.20
2023-01-24T17:37:21.172Z,7.60
2023-01-24T17:39:49.966Z,6.57
2023-01-24T17:42:16.419Z,6.00
2023-01-24T17:44:42.857Z,6.60
2023-01-24T17:47:09.380Z,5.97
2023-01-24T17:49:36.448Z,6.57
2023-01-24T17:52:02.852Z,6.97
2023-01-24T17:54:29.313Z,7.10
2023-01-24T17:56:55.670Z,9.18
2023-01-24T17:59:22.034Z,8.98
2023-01-24T18:01:48.406Z,7.95
2023-01-24T18:04:14.878Z,6.85
2023-01-24T18:06:41.304Z,8.07
2023-01-24T18:09:07.739Z,8.88
2023-01-24T18:11:34.197Z,6.70
2023-01-24T18:14:00.637Z,8.15
2023-01-24T18:16:27.062Z,7.78
2023-01-24T18:18:53.476Z,8.43
2023-01-24T18:21:22.459Z,8.93
2023-01-24T18:24:00.049Z,9.68
2023-01-24T18:26:28.699Z,7.90
2023-01-24T18:28:56.922Z,7.22
2023-01-24T18:31:23.533Z,7.60
2023-01-24T18:33:53.804Z,7.82
2023-01-24T18:36:20.344Z,6.78
2023-01-24T18:38:46.916Z,6.38
2023-01-24T18:41:14.811Z,7.60
2023-01-24T18:43:41.675Z,7.15
2023-01-24T18:46:10.798Z,6.25
2023-01-24T18:48:39.683Z,6.85
2023-01-24T18:51:11.739Z,7.57
2023-01-24T18:53:38.150Z,7.28
2023-01-24T18:56:05.719Z,6.93
2023-01-24T18:58:34.732Z,6.72
2023-01-24T19:01:09.843Z,7.18
2023-01-24T19:03:36.260Z,6.90
2023-01-24T19:06:02.660Z,7.25
2023-01-24T19:08:29.031Z,6.88
2023-01-24T19:10:55.468Z,7.60
2023-01-24T19:13:21.916Z,7.50
2023-01-24T19:15:49.393Z,7.75
2023-01-24T19:18:17.814Z,7.50
2023-01-24T19:20:44.232Z,6.88
2023-01-24T19:23:10.665Z,7.78
2023-01-24T19:25:36.999Z,8.23
2023-01-24T19:28:03.422Z,7.15
2023-01-24T19:30:29.852Z,7.88
2023-01-24T19:32:56.525Z,7.63
2023-01-24T19:35:22.892Z,7.38
2023-01-24T19:37:52.280Z,7.60
2023-01-24T19:40:19.301Z,7.75
2023-01-24T19:42:47.865Z,7.38
2023-01-24T19:45:16.250Z,7.07
2023-01-24T19:47:42.649Z,6.57
2023-01-24T19:50:09.888Z,6.57
2023-01-24T19:52:36.287Z,7.85
2023-01-24T19:55:02.933Z,8.60
2023-01-24T19:57:29.409Z,8.23
2023-01-24T19:59:56.022Z,7.65
2023-01-24T20:02:22.507Z,7.43
2023-01-24T20:04:52.933Z,8.10
2023-01-24T20:07:20.879Z,7.97
2023-01-24T20:09:47.462Z,8.07
2023-01-24T20:12:13.893Z,8.70
2023-01-24T20:14:40.266Z,7.93
2023-01-24T20:17:06.655Z,8.70
2023-01-24T20:19:33.004Z,8.27
2023-01-24T20:21:59.786Z,7.88
2023-01-24T20:24:27.047Z,8.52
2023-01-24T20:26:53.887Z,8.80
2023-01-24T20:29:20.477Z,8.40
2023-01-24T20:31:47.452Z,8.48
2023-01-24T20:34:15.415Z,8.27
2023-01-24T20:36:41.889Z,8.55
2023-01-24T20:39:09.918Z,9.13
2023-01-24T20:41:36.425Z,8.63
2023-01-24T20:44:03.800Z,8.15
2023-01-24T20:46:30.623Z,8.38
2023-01-24T20:48:59.293Z,8.65
2023-01-24T20:51:31.595Z,9.15
2023-01-24T20:53:59.679Z,7.90
2023-01-24T20:56:27.558Z,7.85
2023-01-24T20:58:55.850Z,8.82
2023-01-24T21:01:23.502Z,8.77
2023-01-24T21:03:50.232Z,7.97
2023-01-24T21:06:19.709Z,7.97
2023-01-24T21:08:47.155Z,9.48
2023-01-24T21:11:19.105Z,7.95
2023-01-24T21:13:51.614Z,8.32
2023-01-24T21:16:19.092Z,8.88
2023-01-24T21:18:51.138Z,8.35
2023-01-24T21:21:18.639Z,7.97
2023-01-24T21:23:45.156Z,7.07
2023-01-24T21:26:16.177Z,8.05
2023-01-24T21:28:44.491Z,8.65
2023-01-24T21:31:13.823Z,8.43
2023-01-24T21:33:40.645Z,8.60
2023-01-24T21:36:10.564Z,8.63
2023-01-24T21:38:36.945Z,9.07
2023-01-24T21:41:26.481Z,8.43
2023-01-24T21:43:53.174Z,8.80
2023-01-24T21:46:19.620Z,9.55
2023-01-24T21:49:04.915Z,8.73
2023-01-24T21:51:38.655Z,10.13
2023-01-24T21:54:20.395Z,8.45
2023-01-24T21:57:33.489Z,8.95
2023-01-24T22:00:02.514Z,8.95
2023-01-24T22:02:31.196Z,9.27
2023-01-24T22:04:58.788Z,9.32
2023-01-24T22:07:27.242Z,8.50
2023-01-24T22:09:56.052Z,9.38
2023-01-24T22:12:22.891Z,8.77
2023-01-24T22:14:50.804Z,8.80
2023-01-24T22:17:23.028Z,9.05
2023-01-24T22:19:57.594Z,8.90
2023-01-24T22:22:58.377Z,8.70
2023-01-24T22:25:38.461Z,8.90
2023-01-24T22:28:05.177Z,7.85
2023-01-24T22:30:32.716Z,9.68
2023-01-24T22:33:00.984Z,8.27
2023-01-24T22:35:28.253Z,8.93
2023-01-24T22:37:57.912Z,8.13
2023-01-24T22:40:25.830Z,8.30
2023-01-24T22:42:56.989Z,8.63
2023-01-24T22:45:28.290Z,8.93
2023-01-24T22:47:55.484Z,9.48
2023-01-24T22:50:22.489Z,8.02
2023-01-24T22:52:49.635Z,8.43
2023-01-24T22:55:16.895Z,8.57
2023-01-24T22:57:43.323Z,9.73
2023-01-24T23:00:12.209Z,9.52
2023-01-24T23:02:38.846Z,7.60
2023-01-24T23:05:05.990Z,8.77
2023-01-24T23:07:32.725Z,8.98
2023-01-24T23:09:59.115Z,9.82
2023-01-24T23:12:48.681Z,9.65
2023-01-24T23:15:33.454Z,9.50
2023-01-24T23:18:07.528Z,8.32
2023-01-24T23:20:52.686Z,8.38
2023-01-24T23:23:19.059Z,9.23
2023-01-24T23:25:45.404Z,9.77
2023-01-24T23:28:11.788Z,9.85
2023-01-24T23:30:43.280Z,10.48
2023-01-24T23:33:33.777Z,10.48
2023-01-24T23:36:01.723Z,8.00
2023-01-24T23:38:30.036Z,10.40
2023-01-24T23:40:56.455Z,8.05
2023-01-24T23:43:22.965Z,8.07
2023-01-24T23:45:49.438Z,9.40
2023-01-24T23:48:15.833Z,10.10
2023-01-24T23:50:42.215Z,9.48
2023-01-24T23:53:08.630Z,10.60
2023-01-24T23:55:35.014Z,8.93
2023-01-24T23:58:02.668Z,9.43
